createdAt,value
2019-05-25T00:02:06.844Z,4.20
2019-05-25T00:04:37.881Z,4.12
2019-05-25T00:07:08.874Z,4.08
2019-05-25T00:09:39.910Z,3.92
2019-05-25T00:12:10.983Z,3.17
2019-05-25T00:14:42.027Z,2.97
2019-05-25T00:17:14.101Z,2.50
2019-05-25T00:19:45.365Z,2.93
2019-05-25T00:22:16.371Z,3.53
2019-05-25T00:24:47.491Z,2.57
2019-05-25T00:27:18.535Z,2.85
2019-05-25T00:29:49.706Z,2.97
2019-05-25T00:32:20.991Z,2.70
2019-05-25T00:34:52.184Z,2.60
2019-05-25T00:37:23.225Z,2.23
2019-05-25T00:39:54.961Z,2.30
2019-05-25T00:42:26.290Z,2.72
2019-05-25T00:44:57.323Z,2.83
2019-05-25T00:47:28.373Z,2.80
2019-05-25T00:49:59.581Z,2.70
2019-05-25T00:52:30.745Z,2.80
2019-05-25T00:55:02.784Z,2.30
2019-05-25T00:57:33.870Z,3.10
2019-05-25T01:00:06.277Z,2.70
2019-05-25T01:02:40.849Z,2.42
2019-05-25T01:05:12.431Z,3.23
2019-05-25T01:07:43.433Z,3.37
2019-05-25T01:10:15.025Z,2.60
2019-05-25T01:12:46.096Z,3.27
2019-05-25T01:15:17.987Z,4.25
2019-05-25T01:17:49.401Z,3.10
2019-05-25T01:20:21.168Z,2.90
2019-05-25T01:22:52.162Z,3.20
2019-05-25T01:25:23.362Z,2.80
2019-05-25T01:27:55.267Z,2.80
2019-05-25T01:30:26.715Z,2.92
2019-05-25T01:32:58.182Z,2.17
2019-05-25T01:35:29.319Z,2.47
2019-05-25T01:38:00.410Z,2.90
2019-05-25T01:40:31.601Z,2.70
2019-05-25T01:43:02.850Z,3.23
2019-05-25T01:45:34.051Z,3.02
2019-05-25T01:48:05.236Z,2.40
2019-05-25T01:50:36.735Z,3.00
2019-05-25T01:53:07.796Z,3.20
2019-05-25T01:55:38.912Z,2.90
2019-05-25T01:58:10.324Z,3.07
2019-05-25T02:00:41.435Z,3.80
2019-05-25T02:03:12.441Z,3.40
2019-05-25T02:05:43.673Z,3.53
2019-05-25T02:08:14.669Z,3.33
2019-05-25T02:10:45.880Z,3.10
2019-05-25T02:13:18.021Z,2.90
2019-05-25T02:15:49.371Z,2.90
2019-05-25T02:18:20.532Z,2.77
2019-05-25T02:20:51.811Z,3.10
2019-05-25T02:23:23.090Z,2.62
2019-05-25T02:25:55.535Z,2.80
2019-05-25T02:28:26.707Z,2.58
2019-05-25T02:30:58.825Z,2.50
2019-05-25T02:33:29.918Z,2.72
2019-05-25T02:36:00.948Z,2.77
2019-05-25T02:38:31.970Z,2.27
2019-05-25T02:41:03.348Z,2.23
2019-05-25T02:43:34.515Z,2.50
2019-05-25T02:46:05.653Z,2.20
2019-05-25T02:48:36.678Z,2.05
2019-05-25T02:51:08.076Z,2.33
2019-05-25T02:53:39.170Z,2.62
2019-05-25T02:56:10.672Z,2.20
2019-05-25T02:58:41.625Z,2.57
2019-05-25T03:01:12.754Z,2.23
2019-05-25T03:03:43.766Z,2.63
2019-05-25T03:06:15.123Z,2.67
2019-05-25T03:08:47.557Z,2.57
2019-05-25T03:11:19.965Z,2.67
2019-05-25T03:13:51.095Z,2.10
2019-05-25T03:16:22.183Z,2.50
2019-05-25T03:18:53.190Z,3.13
2019-05-25T03:21:25.613Z,2.60
2019-05-25T03:23:56.688Z,2.00
2019-05-25T03:26:27.849Z,2.52
2019-05-25T03:28:58.965Z,2.20
2019-05-25T03:31:30.096Z,2.07
2019-05-25T03:34:01.104Z,2.42
2019-05-25T03:36:32.150Z,2.45
2019-05-25T03:39:03.137Z,3.17
2019-05-25T03:41:34.193Z,2.40
2019-05-25T03:44:05.262Z,2.53
2019-05-25T03:46:36.435Z,2.60
2019-05-25T03:49:08.858Z,2.37
2019-05-25T03:51:39.921Z,2.33
2019-05-25T03:54:11.347Z,2.27
2019-05-25T03:56:42.516Z,2.58
2019-05-25T03:59:13.503Z,2.23
2019-05-25T04:01:44.718Z,2.50
2019-05-25T04:04:15.803Z,2.58
2019-05-25T04:06:46.934Z,2.40
2019-05-25T04:09:18.151Z,2.80
2019-05-25T04:11:49.169Z,2.73
2019-05-25T04:14:20.169Z,2.50
2019-05-25T04:16:51.343Z,2.40
2019-05-25T04:19:22.626Z,2.43
2019-05-25T04:21:53.679Z,2.53
2019-05-25T04:24:25.572Z,2.42
2019-05-25T04:26:56.614Z,2.87
2019-05-25T04:29:27.625Z,2.70
2019-05-25T04:31:58.862Z,3.00
2019-05-25T04:34:29.849Z,3.12
2019-05-25T04:37:00.907Z,2.87
2019-05-25T04:39:31.929Z,3.23
2019-05-25T04:42:02.953Z,2.83
2019-05-25T04:44:34.985Z,2.50
2019-05-25T04:47:06.115Z,2.83
2019-05-25T04:49:37.396Z,2.33
2019-05-25T04:52:08.648Z,2.90
2019-05-25T04:54:39.715Z,2.47
2019-05-25T04:57:12.090Z,2.77
2019-05-25T04:59:43.297Z,2.52
2019-05-25T05:02:14.460Z,2.80
2019-05-25T05:04:45.579Z,2.53
2019-05-25T05:07:16.718Z,2.70
2019-05-25T05:10:01.488Z,2.97
2019-05-25T05:12:20.747Z,2.25
2019-05-25T05:14:51.842Z,2.90
2019-05-25T05:17:22.899Z,2.35
2019-05-25T05:19:53.894Z,3.10
2019-05-25T05:22:25.717Z,3.12
2019-05-25T05:24:56.698Z,2.50
2019-05-25T05:27:27.809Z,2.75
2019-05-25T05:29:58.892Z,2.30
2019-05-25T05:32:30.216Z,3.04
2019-05-25T05:35:01.366Z,3.00
2019-05-25T05:37:34.022Z,2.50
2019-05-25T05:40:06.542Z,2.57
2019-05-25T05:42:41.273Z,3.42
2019-05-25T05:45:13.163Z,2.83
2019-05-25T05:47:47.500Z,2.87
2019-05-25T05:50:19.809Z,3.10
2019-05-25T05:52:54.340Z,3.43
2019-05-25T05:55:32.697Z,3.05
2019-05-25T05:58:04.033Z,2.85
2019-05-25T06:00:35.199Z,2.92
2019-05-25T06:03:06.417Z,2.80
2019-05-25T06:05:37.481Z,2.77
2019-05-25T06:08:09.453Z,2.63
2019-05-25T06:10:40.630Z,3.30
2019-05-25T06:13:11.636Z,3.10
2019-05-25T06:15:43.849Z,3.20
2019-05-25T06:18:14.853Z,3.20
2019-05-25T06:20:45.940Z,3.43
2019-05-25T06:23:17.092Z,2.90
2019-05-25T06:25:48.153Z,3.10
2019-05-25T06:28:22.427Z,3.00
2019-05-25T06:30:52.134Z,3.40
2019-05-25T06:33:23.263Z,2.95
2019-05-25T06:35:54.426Z,3.03
2019-05-25T06:38:25.865Z,2.67
2019-05-25T06:40:56.973Z,3.63
2019-05-25T06:43:28.065Z,2.92
2019-05-25T06:45:59.137Z,2.67
2019-05-25T06:48:30.285Z,2.50
2019-05-25T06:51:01.343Z,3.47
2019-05-25T06:53:32.430Z,3.00
2019-05-25T06:56:03.573Z,2.67
2019-05-25T06:58:34.584Z,2.47
2019-05-25T07:01:05.932Z,3.17
2019-05-25T07:03:36.951Z,2.80
2019-05-25T07:06:08.361Z,3.23
2019-05-25T07:08:39.372Z,3.53
2019-05-25T07:11:10.573Z,2.87
2019-05-25T07:13:41.649Z,2.95
2019-05-25T07:16:13.903Z,3.30
2019-05-25T07:18:45.068Z,3.60
2019-05-25T07:21:16.170Z,3.00
2019-05-25T07:23:47.170Z,3.83
2019-05-25T07:26:18.455Z,3.20
2019-05-25T07:28:49.556Z,3.30
2019-05-25T07:31:20.614Z,3.80
2019-05-25T07:33:51.648Z,3.97
2019-05-25T07:36:22.708Z,3.97
2019-05-25T07:38:53.823Z,3.50
2019-05-25T07:41:26.775Z,4.00
2019-05-25T07:43:57.845Z,4.07
2019-05-25T07:46:28.975Z,3.47
2019-05-25T07:49:00.085Z,3.75
2019-05-25T07:51:31.355Z,3.50
2019-05-25T07:54:02.510Z,3.03
2019-05-25T07:56:33.788Z,2.80
2019-05-25T07:59:05.137Z,3.20
2019-05-25T08:01:37.319Z,2.80
2019-05-25T08:04:08.391Z,3.17
2019-05-25T08:06:39.710Z,2.80
2019-05-25T08:09:10.954Z,2.50
2019-05-25T08:11:42.299Z,3.00
2019-05-25T08:14:14.570Z,2.90
2019-05-25T08:16:45.776Z,2.90
2019-05-25T08:19:16.854Z,3.00
2019-05-25T08:21:48.094Z,2.97
2019-05-25T08:24:19.319Z,2.62
2019-05-25T08:26:50.603Z,2.97
2019-05-25T08:29:21.755Z,3.12
2019-05-25T08:31:53.218Z,3.73
2019-05-25T08:34:24.408Z,3.52
2019-05-25T08:36:56.487Z,3.35
2019-05-25T08:39:28.723Z,3.60
2019-05-25T08:42:00.049Z,3.17
2019-05-25T08:44:31.358Z,3.22
2019-05-25T08:47:02.538Z,3.73
2019-05-25T08:49:33.754Z,3.77
2019-05-25T08:52:05.011Z,4.10
2019-05-25T08:54:36.520Z,3.95
2019-05-25T08:57:07.784Z,3.80
2019-05-25T08:59:39.029Z,4.30
2019-05-25T09:02:10.538Z,3.70
2019-05-25T09:04:41.748Z,4.35
2019-05-25T09:07:12.916Z,4.00
2019-05-25T09:09:44.040Z,4.33
2019-05-25T09:12:15.744Z,2.87
2019-05-25T09:14:46.820Z,3.30
2019-05-25T09:17:18.012Z,2.97
2019-05-25T09:19:49.082Z,3.30
2019-05-25T09:22:20.340Z,3.53
2019-05-25T09:24:51.498Z,3.20
2019-05-25T09:27:22.759Z,2.73
2019-05-25T09:29:53.803Z,2.70
2019-05-25T09:32:25.016Z,3.77
2019-05-25T09:34:56.534Z,3.77
2019-05-25T09:37:27.721Z,3.10
2019-05-25T09:39:58.815Z,3.67
2019-05-25T09:42:30.033Z,3.13
2019-05-25T09:45:02.046Z,3.50
2019-05-25T09:47:33.353Z,3.37
2019-05-25T09:50:05.171Z,3.37
2019-05-25T09:52:36.447Z,3.02
2019-05-25T09:55:08.373Z,3.30
2019-05-25T09:57:41.704Z,3.37
2019-05-25T10:00:14.408Z,3.10
2019-05-25T10:02:46.053Z,3.37
2019-05-25T10:05:17.566Z,3.27
2019-05-25T10:07:48.820Z,2.90
2019-05-25T14:42:01.893Z,3.00
2019-05-25T14:44:32.945Z,3.63
2019-05-25T14:47:04.495Z,2.73
2019-05-25T14:49:35.744Z,3.20
2019-05-25T14:52:07.403Z,3.13
2019-05-25T14:54:38.708Z,3.35
2019-05-25T14:57:09.916Z,3.60
2019-05-25T14:59:41.399Z,3.58
2019-05-25T15:02:12.539Z,3.35
2019-05-25T15:04:43.735Z,3.17
2019-05-25T15:07:14.920Z,3.47
2019-05-25T15:09:46.060Z,3.47
2019-05-25T15:12:17.394Z,3.63
2019-05-25T15:14:48.611Z,2.60
2019-05-25T15:17:20.248Z,3.20
2019-05-25T15:19:51.469Z,3.40
2019-05-25T15:22:22.512Z,3.20
2019-05-25T15:24:53.595Z,3.50
2019-05-25T15:27:24.690Z,3.62
2019-05-25T15:29:55.733Z,4.20
2019-05-25T15:32:27.674Z,2.86
2019-05-25T15:34:58.941Z,3.47
2019-05-25T15:37:29.944Z,4.22
2019-05-25T15:40:01.067Z,3.80
2019-05-25T15:42:32.305Z,4.35
2019-05-25T15:45:03.467Z,5.53
2019-05-25T15:47:34.643Z,5.53
2019-05-25T15:50:07.574Z,4.35
2019-05-25T15:52:39.703Z,4.65
2019-05-25T15:55:11.452Z,3.27
2019-05-25T15:57:42.542Z,4.03
2019-05-25T16:00:16.041Z,3.35
2019-05-25T16:02:47.280Z,3.60
2019-05-25T16:05:20.580Z,3.93
2019-05-25T16:07:53.932Z,3.80
2019-05-25T16:10:25.141Z,2.83
2019-05-25T16:12:56.208Z,2.63
2019-05-25T16:15:29.073Z,2.60
2019-05-25T16:18:00.343Z,2.80
2019-05-25T16:20:31.411Z,2.77
2019-05-25T16:23:02.601Z,2.37
2019-05-25T16:25:34.088Z,2.43
2019-05-25T16:28:05.353Z,2.50
2019-05-25T16:30:36.612Z,2.70
2019-05-25T16:33:12.552Z,2.02
2019-05-25T16:35:40.732Z,2.33
2019-05-25T16:38:12.387Z,2.35
2019-05-25T16:40:43.798Z,2.22
2019-05-25T16:43:14.878Z,2.30
2019-05-25T16:45:46.503Z,2.20
2019-05-25T16:48:17.584Z,2.30
2019-05-25T16:50:48.733Z,1.90
2019-05-25T16:53:19.867Z,2.10
2019-05-25T16:55:54.382Z,2.33
2019-05-25T16:58:24.879Z,2.17
2019-05-25T17:00:56.025Z,1.80
2019-05-25T17:03:29.258Z,2.27
2019-05-25T17:06:01.539Z,1.93
2019-05-25T17:08:32.700Z,2.60
2019-05-25T17:11:03.751Z,2.30
2019-05-25T17:13:34.889Z,2.10
2019-05-25T17:16:06.228Z,2.27
2019-05-25T17:18:37.326Z,2.30
2019-05-25T17:21:08.503Z,2.10
2019-05-25T17:23:39.917Z,2.00
2019-05-25T17:26:10.965Z,2.10
2019-05-25T17:28:42.124Z,1.82
2019-05-25T17:31:13.158Z,2.83
2019-05-25T17:33:46.473Z,2.30
2019-05-25T17:36:17.384Z,2.03
2019-05-25T17:38:48.481Z,2.23
2019-05-25T17:41:19.723Z,1.80
2019-05-25T17:43:50.913Z,2.37
2019-05-25T17:46:22.180Z,2.30
2019-05-25T17:48:53.312Z,2.63
2019-05-25T17:51:24.509Z,2.37
2019-05-25T17:53:55.653Z,2.50
2019-05-25T17:56:28.221Z,2.47
2019-05-25T17:58:59.775Z,2.50
2019-05-25T18:01:30.825Z,2.30
2019-05-25T18:04:07.227Z,1.87
2019-05-25T18:06:34.860Z,2.83
2019-05-25T18:09:08.842Z,2.33
2019-05-25T18:11:39.917Z,2.65
2019-05-25T18:14:11.255Z,2.10
2019-05-25T18:16:43.407Z,2.42
2019-05-25T18:19:14.633Z,2.20
2019-05-25T18:21:45.999Z,1.92
2019-05-25T18:24:18.231Z,2.30
2019-05-25T18:26:49.455Z,2.20
2019-05-25T18:29:23.777Z,2.43
2019-05-25T18:31:53.873Z,2.07
2019-05-25T18:34:24.943Z,1.70
2019-05-25T18:36:56.087Z,1.90
2019-05-25T18:39:28.375Z,1.72
2019-05-25T18:41:59.399Z,1.82
2019-05-25T18:44:30.542Z,1.90
2019-05-25T18:47:01.713Z,1.97
2019-05-25T18:49:32.862Z,2.17
2019-05-25T18:52:04.055Z,1.90
2019-05-25T18:54:35.326Z,1.73
2019-05-25T18:57:09.340Z,1.57
2019-05-25T18:59:39.459Z,2.02
2019-05-25T19:02:10.584Z,1.93
2019-05-25T19:04:45.965Z,1.43
2019-05-25T19:07:14.414Z,2.10
2019-05-25T19:09:45.545Z,1.60
2019-05-25T19:12:16.638Z,1.97
2019-05-25T19:14:47.779Z,1.80
2019-05-25T19:17:18.892Z,2.10
2019-05-25T19:19:49.965Z,1.70
2019-05-25T19:22:21.173Z,2.83
2019-05-25T19:24:52.199Z,2.30
2019-05-25T19:27:23.276Z,2.10
2019-05-25T19:29:54.327Z,2.03
2019-05-25T19:32:25.443Z,2.10
2019-05-25T19:34:59.744Z,1.57
2019-05-25T19:37:29.251Z,1.80
2019-05-25T19:40:00.418Z,1.80
2019-05-25T19:42:31.455Z,1.70
2019-05-25T19:45:02.608Z,1.57
2019-05-25T19:47:33.713Z,1.57
2019-05-25T19:50:05.682Z,2.30
2019-05-25T19:52:37.110Z,1.60
2019-05-25T19:55:09.177Z,1.82
2019-05-25T19:57:40.416Z,1.53
2019-05-25T20:00:13.618Z,1.83
2019-05-25T20:02:45.218Z,1.67
2019-05-25T20:05:17.794Z,1.63
2019-05-25T20:07:48.908Z,1.50
2019-05-25T20:10:20.678Z,1.60
2019-05-25T20:12:51.689Z,2.15
2019-05-25T20:15:24.097Z,1.80
2019-05-25T20:17:55.142Z,2.40
2019-05-25T20:20:26.395Z,1.90
2019-05-25T20:22:58.772Z,1.33
2019-05-25T20:25:29.920Z,1.98
2019-05-25T20:28:00.931Z,1.67
2019-05-25T20:30:33.361Z,1.92
2019-05-25T20:33:04.614Z,2.03
2019-05-25T20:35:36.664Z,2.00
2019-05-25T20:38:07.705Z,2.35
2019-05-25T20:40:38.759Z,2.00
2019-05-25T20:43:09.877Z,1.90
2019-05-25T20:45:40.953Z,2.20
2019-05-25T20:48:11.985Z,1.80
2019-05-25T20:50:43.249Z,2.23
2019-05-25T20:53:14.345Z,1.80
2019-05-25T20:55:45.467Z,1.85
2019-05-25T20:58:16.584Z,2.13
2019-05-25T21:00:47.876Z,1.63
2019-05-25T21:03:18.915Z,1.67
2019-05-25T21:05:51.077Z,2.20
2019-05-25T21:08:22.188Z,1.80
2019-05-25T21:10:53.446Z,2.07
2019-05-25T21:13:24.509Z,1.77
2019-05-25T21:15:55.549Z,1.63
2019-05-25T21:18:26.547Z,1.93
2019-05-25T21:20:58.920Z,2.00
2019-05-25T21:23:29.927Z,1.85
2019-05-25T21:26:01.163Z,2.57
2019-05-25T21:28:32.173Z,1.95
2019-05-25T21:31:03.255Z,1.87
2019-05-25T21:33:34.314Z,2.20
2019-05-25T21:36:08.828Z,2.07
2019-05-25T21:38:38.353Z,1.77
2019-05-25T21:41:09.775Z,2.10
2019-05-25T21:43:40.850Z,2.13
2019-05-25T21:46:11.975Z,1.90
2019-05-25T21:48:43.093Z,2.07
2019-05-25T21:51:14.248Z,2.27
2019-05-25T21:53:45.365Z,1.75
2019-05-25T21:56:16.500Z,1.90
2019-05-25T21:58:47.656Z,2.17
2019-05-25T22:01:19.232Z,1.90
2019-05-25T22:03:50.348Z,2.10
2019-05-25T22:06:24.575Z,2.30
2019-05-25T22:08:54.640Z,2.20
2019-05-25T22:11:25.969Z,2.40
2019-05-25T22:13:57.026Z,2.20
2019-05-25T22:16:29.178Z,2.00
2019-05-25T22:19:00.461Z,2.40
2019-05-25T22:21:31.781Z,2.27
2019-05-25T22:24:03.018Z,2.20
2019-05-25T22:26:35.216Z,2.07
2019-05-25T22:29:06.690Z,2.47
2019-05-25T22:31:37.853Z,2.00
2019-05-25T22:34:08.926Z,2.53
2019-05-25T22:36:41.273Z,2.80
2019-05-25T22:39:12.362Z,2.23
2019-05-25T22:41:43.548Z,2.63
2019-05-25T22:44:14.582Z,2.40
2019-05-25T22:46:45.600Z,2.40
2019-05-25T22:49:17.676Z,2.43
2019-05-25T22:51:48.817Z,2.80
2019-05-25T22:54:20.114Z,2.37
2019-05-25T22:56:51.321Z,2.60
2019-05-25T22:59:22.396Z,2.67
2019-05-25T23:01:53.670Z,2.63
2019-05-25T23:04:25.933Z,2.30
2019-05-25T23:06:58.594Z,2.50
2019-05-25T23:09:29.904Z,2.40
2019-05-25T23:12:01.158Z,2.50
2019-05-25T23:14:32.563Z,2.55
2019-05-25T23:17:03.780Z,2.85
2019-05-25T23:19:34.941Z,2.20
2019-05-25T23:22:06.140Z,2.63
2019-05-25T23:24:37.146Z,2.60
2019-05-25T23:27:08.350Z,3.15
2019-05-25T23:29:39.352Z,2.70
2019-05-25T23:32:10.609Z,2.27
2019-05-25T23:34:41.663Z,2.87
2019-05-25T23:37:15.029Z,2.80
2019-05-25T23:39:45.447Z,2.65
2019-05-25T23:42:16.521Z,2.70
2019-05-25T23:44:47.542Z,2.50
2019-05-25T23:47:18.621Z,2.30
2019-05-25T23:49:49.660Z,2.87
2019-05-25T23:52:20.726Z,2.47
2019-05-25T23:54:51.770Z,2.37
2019-05-25T23:57:22.819Z,2.23
2019-05-25T23:59:53.839Z,2.57
